sensor_id;sensor_type;location;lat;lon;timestamp;pressure;altitude;pressure_sealevel;temperature;humidity
50250;BME280;36133;42.522;27.456;2023-04-22T00:00:05;101009.69;;;13.97;54.73
50250;BME280;36133;42.522;27.456;2023-04-22T00:02:31;100568.00;;;11.41;54.01
50250;BME280;36133;42.522;27.456;2023-04-22T00:04:56;100810.38;;;12.63;54.83
50250;BME280;36133;42.522;27.456;2023-04-22T00:07:22;100398.59;;;9.79;55.46
50250;BME280;36133;42.522;27.456;2023-04-22T00:09:48;101096.56;;;14.03;55.53
50250;BME280;36133;42.522;27.456;2023-04-22T00:12:14;100864.53;;;12.13;56.70
50250;BME280;36133;42.522;27.456;2023-04-22T00:14:40;101094.59;;;13.56;57.02
50250;BME280;36133;42.522;27.456;2023-04-22T00:17:05;100998.63;;;13.23;56.02
50250;BME280;36133;42.522;27.456;2023-04-22T00:19:32;101088.34;;;14.79;53.43
50250;BME280;36133;42.522;27.456;2023-04-22T00:21:57;101073.94;;;14.92;52.52
50250;BME280;36133;42.522;27.456;2023-04-22T00:24:23;101083.31;;;14.89;52.88
50250;BME280;36133;42.522;27.456;2023-04-22T00:26:48;101094.41;;;13.86;55.63
50250;BME280;36133;42.522;27.456;2023-04-22T00:29:14;101083.56;;;13.30;57.29
50250;BME280;36133;42.522;27.456;2023-04-22T00:31:40;101105.31;;;13.36;57.24
50250;BME280;36133;42.522;27.456;2023-04-22T00:34:05;101062.78;;;13.15;57.47
50250;BME280;36133;42.522;27.456;2023-04-22T00:36:31;100974.88;;;13.03;56.60
50250;BME280;36133;42.522;27.456;2023-04-22T00:38:57;100985.94;;;13.30;55.90
50250;BME280;36133;42.522;27.456;2023-04-22T00:41:22;101091.06;;;13.84;56.42
50250;BME280;36133;42.522;27.456;2023-04-22T00:43:49;101040.44;;;13.13;56.82
50250;BME280;36133;42.522;27.456;2023-04-22T00:46:16;101005.03;;;12.94;57.23
50250;BME280;36133;42.522;27.456;2023-04-22T00:48:42;101105.25;;;13.30;57.99
50250;BME280;36133;42.522;27.456;2023-04-22T00:51:08;101100.44;;;13.25;58.10
50250;BME280;36133;42.522;27.456;2023-04-22T00:53:33;100865.25;;;11.64;58.75
50250;BME280;36133;42.522;27.456;2023-04-22T00:56:01;101083.44;;;12.74;60.13
50250;BME280;36133;42.522;27.456;2023-04-22T00:58:27;100993.19;;;11.94;60.60
50250;BME280;36133;42.522;27.456;2023-04-22T01:00:53;101064.59;;;12.29;60.41
50250;BME280;36133;42.522;27.456;2023-04-22T01:03:19;100836.16;;;11.15;59.00
50250;BME280;36133;42.522;27.456;2023-04-22T01:05:49;101047.47;;;12.08;59.45
50250;BME280;36133;42.522;27.456;2023-04-22T01:08:15;100869.84;;;11.34;58.76
50250;BME280;36133;42.522;27.456;2023-04-22T01:10:41;100760.53;;;10.71;58.55
50250;BME280;36133;42.522;27.456;2023-04-22T01:13:08;100985.16;;;11.71;59.32
50250;BME280;36133;42.522;27.456;2023-04-22T01:15:34;100765.53;;;10.89;58.28
50250;BME280;36133;42.522;27.456;2023-04-22T01:18:00;100763.78;;;10.37;59.26
50250;BME280;36133;42.522;27.456;2023-04-22T01:20:27;100970.44;;;11.59;59.52
50250;BME280;36133;42.522;27.456;2023-04-22T01:22:56;101081.22;;;12.84;58.18
50250;BME280;36133;42.522;27.456;2023-04-22T01:25:23;101043.06;;;12.79;57.86
50250;BME280;36133;42.522;27.456;2023-04-22T01:27:49;101086.06;;;13.31;56.42
50250;BME280;36133;42.522;27.456;2023-04-22T01:30:16;100981.00;;;12.41;57.11
50250;BME280;36133;42.522;27.456;2023-04-22T01:32:41;100880.31;;;11.88;57.19
50250;BME280;36133;42.522;27.456;2023-04-22T01:35:08;100794.47;;;11.25;57.39
50250;BME280;36133;42.522;27.456;2023-04-22T01:37:34;101078.53;;;13.27;57.43
50250;BME280;36133;42.522;27.456;2023-04-22T01:40:02;100757.06;;;11.86;55.36
50250;BME280;36133;42.522;27.456;2023-04-22T01:42:29;101108.97;;;13.78;55.67
50250;BME280;36133;42.522;27.456;2023-04-22T01:44:55;100978.16;;;13.20;55.49
50250;BME280;36133;42.522;27.456;2023-04-22T01:47:24;100539.00;;;9.33;58.20
50250;BME280;36133;42.522;27.456;2023-04-22T01:49:49;100849.69;;;11.15;58.94
50250;BME280;36133;42.522;27.456;2023-04-22T01:52:16;100579.63;;;9.61;58.74
50250;BME280;36133;42.522;27.456;2023-04-22T01:54:42;100883.03;;;11.88;57.88
50250;BME280;36133;42.522;27.456;2023-04-22T01:57:09;100834.38;;;11.59;57.82
50250;BME280;36133;42.522;27.456;2023-04-22T01:59:35;100861.38;;;11.37;59.72
50250;BME280;36133;42.522;27.456;2023-04-22T02:02:01;101069.63;;;12.69;59.13
50250;BME280;36133;42.522;27.456;2023-04-22T02:04:27;100731.28;;;10.90;59.32
50250;BME280;36133;42.522;27.456;2023-04-22T02:06:55;100989.53;;;12.02;60.72
50250;BME280;36133;42.522;27.456;2023-04-22T02:09:21;101060.06;;;12.51;60.75
50250;BME280;36133;42.522;27.456;2023-04-22T02:11:46;101084.00;;;12.69;60.66
50250;BME280;36133;42.522;27.456;2023-04-22T02:14:12;100973.31;;;12.45;60.72
50250;BME280;36133;42.522;27.456;2023-04-22T02:16:40;100747.53;;;11.11;60.63
50250;BME280;36133;42.522;27.456;2023-04-22T02:19:05;101063.28;;;12.40;61.90
50250;BME280;36133;42.522;27.456;2023-04-22T02:21:31;100952.63;;;11.65;62.84
50250;BME280;36133;42.522;27.456;2023-04-22T02:23:59;101060.81;;;12.24;63.29
50250;BME280;36133;42.522;27.456;2023-04-22T02:26:25;101101.50;;;12.88;61.67
50250;BME280;36133;42.522;27.456;2023-04-22T02:28:51;100946.31;;;12.30;60.88
50250;BME280;36133;42.522;27.456;2023-04-22T02:31:20;100527.66;;;9.53;60.76
50250;BME280;36133;42.522;27.456;2023-04-22T02:33:45;100903.63;;;11.74;61.35
50250;BME280;36133;42.522;27.456;2023-04-22T02:36:11;100485.06;;;8.81;63.33
50250;BME280;36133;42.522;27.456;2023-04-22T02:38:37;100665.41;;;10.40;61.84
50250;BME280;36133;42.522;27.456;2023-04-22T02:41:02;101041.16;;;13.01;60.56
50250;BME280;36133;42.522;27.456;2023-04-22T02:43:28;101099.56;;;12.46;63.41
50250;BME280;36133;42.522;27.456;2023-04-22T02:45:54;100859.34;;;11.10;62.54
50250;BME280;36133;42.522;27.456;2023-04-22T02:48:19;100577.63;;;10.59;59.52
50250;BME280;36133;42.522;27.456;2023-04-22T02:50:45;100909.38;;;12.44;59.91
50250;BME280;36133;42.522;27.456;2023-04-22T02:53:10;100971.16;;;11.97;62.70
50250;BME280;36133;42.522;27.456;2023-04-22T02:55:38;101052.09;;;12.28;63.53
50250;BME280;36133;42.522;27.456;2023-04-22T02:58:05;100898.00;;;11.25;62.81
50250;BME280;36133;42.522;27.456;2023-04-22T03:00:31;101095.78;;;12.40;63.21
50250;BME280;36133;42.522;27.456;2023-04-22T03:02:56;101058.28;;;12.08;62.59
50250;BME280;36133;42.522;27.456;2023-04-22T03:05:22;100826.78;;;10.67;63.51
50250;BME280;36133;42.522;27.456;2023-04-22T03:07:48;101062.72;;;11.79;64.79
50250;BME280;36133;42.522;27.456;2023-04-22T03:10:13;100987.31;;;11.32;64.57
50250;BME280;36133;42.522;27.456;2023-04-22T03:12:40;101000.19;;;11.15;65.99
50250;BME280;36133;42.522;27.456;2023-04-22T03:15:06;100887.78;;;10.39;66.09
50250;BME280;36133;42.522;27.456;2023-04-22T03:17:32;101077.59;;;11.60;66.19
50250;BME280;36133;42.522;27.456;2023-04-22T03:19:57;101104.50;;;11.91;66.48
50250;BME280;36133;42.522;27.456;2023-04-22T03:22:23;100802.59;;;9.98;67.10
50250;BME280;36133;42.522;27.456;2023-04-22T03:24:48;100847.19;;;10.32;66.79
50250;BME280;36133;42.522;27.456;2023-04-22T03:27:14;101104.13;;;11.94;66.70
50250;BME280;36133;42.522;27.456;2023-04-22T03:29:40;100922.66;;;10.63;67.48
50250;BME280;36133;42.522;27.456;2023-04-22T03:32:05;100563.06;;;8.97;65.98
50250;BME280;36133;42.522;27.456;2023-04-22T03:34:33;101060.16;;;11.78;66.73
50250;BME280;36133;42.522;27.456;2023-04-22T03:36:58;101064.16;;;12.26;65.49
50250;BME280;36133;42.522;27.456;2023-04-22T03:39:24;101121.91;;;12.48;64.67
50250;BME280;36133;42.522;27.456;2023-04-22T03:41:49;100680.13;;;9.70;65.84
50250;BME280;36133;42.522;27.456;2023-04-22T03:44:15;101096.91;;;12.67;64.88
50250;BME280;36133;42.522;27.456;2023-04-22T03:46:41;101118.53;;;12.60;66.26
50250;BME280;36133;42.522;27.456;2023-04-22T03:49:06;100966.41;;;11.85;65.12
50250;BME280;36133;42.522;27.456;2023-04-22T03:51:31;100989.28;;;11.82;66.19
50250;BME280;36133;42.522;27.456;2023-04-22T03:53:57;101108.38;;;12.33;66.58
50250;BME280;36133;42.522;27.456;2023-04-22T03:56:22;101061.09;;;12.50;65.53
50250;BME280;36133;42.522;27.456;2023-04-22T03:58:49;101129.72;;;12.72;66.14
50250;BME280;36133;42.522;27.456;2023-04-22T04:01:15;101035.63;;;12.45;65.45
50250;BME280;36133;42.522;27.456;2023-04-22T04:03:40;100934.53;;;12.16;64.49
50250;BME280;36133;42.522;27.456;2023-04-22T04:06:06;101045.22;;;12.47;65.61
50250;BME280;36133;42.522;27.456;2023-04-22T04:08:31;100914.81;;;12.01;64.95
50250;BME280;36133;42.522;27.456;2023-04-22T04:10:57;100667.25;;;10.69;64.64
50250;BME280;36133;42.522;27.456;2023-04-22T04:13:22;100661.63;;;10.34;64.47
50250;BME280;36133;42.522;27.456;2023-04-22T04:15:48;100973.50;;;12.00;65.51
50250;BME280;36133;42.522;27.456;2023-04-22T04:18:14;101157.84;;;13.57;64.69
50250;BME280;36133;42.522;27.456;2023-04-22T04:20:39;101055.66;;;13.14;63.59
50250;BME280;36133;42.522;27.456;2023-04-22T04:23:05;101167.44;;;14.08;62.61
50250;BME280;36133;42.522;27.456;2023-04-22T04:25:30;101167.09;;;13.90;63.21
50250;BME280;36133;42.522;27.456;2023-04-22T04:28:05;101160.88;;;13.96;62.52
50250;BME280;36133;42.522;27.456;2023-04-22T04:30:33;101093.03;;;13.68;61.62
50250;BME280;36133;42.522;27.456;2023-04-22T04:32:59;101079.75;;;13.45;62.35
50250;BME280;36133;42.522;27.456;2023-04-22T04:35:32;101164.16;;;13.92;62.33
50250;BME280;36133;42.522;27.456;2023-04-22T04:38:02;101171.25;;;13.58;63.56
50250;BME280;36133;42.522;27.456;2023-04-22T04:40:28;101126.47;;;12.83;64.10
50250;BME280;36133;42.522;27.456;2023-04-22T04:42:54;101165.72;;;13.24;63.81
50250;BME280;36133;42.522;27.456;2023-04-22T04:45:22;101183.41;;;13.05;64.72
50250;BME280;36133;42.522;27.456;2023-04-22T04:47:48;101104.28;;;12.37;65.29
50250;BME280;36133;42.522;27.456;2023-04-22T04:50:20;101093.75;;;12.64;64.63
50250;BME280;36133;42.522;27.456;2023-04-22T04:52:49;101005.63;;;12.25;65.00
50250;BME280;36133;42.522;27.456;2023-04-22T04:55:15;101187.94;;;13.34;64.12
50250;BME280;36133;42.522;27.456;2023-04-22T04:57:43;101139.59;;;13.01;64.47
50250;BME280;36133;42.522;27.456;2023-04-22T05:00:10;101130.09;;;13.12;64.64
50250;BME280;36133;42.522;27.456;2023-04-22T05:02:36;101195.63;;;14.07;63.40
50250;BME280;36133;42.522;27.456;2023-04-22T05:05:02;101131.91;;;15.32;59.44
50250;BME280;36133;42.522;27.456;2023-04-22T05:07:27;101204.41;;;14.85;61.16
50250;BME280;36133;42.522;27.456;2023-04-22T05:09:53;101011.66;;;13.75;61.11
50250;BME280;36133;42.522;27.456;2023-04-22T05:12:18;101114.94;;;15.04;59.06
50250;BME280;36133;42.522;27.456;2023-04-22T05:14:44;101143.59;;;15.99;58.19
50250;BME280;36133;42.522;27.456;2023-04-22T05:17:11;101174.34;;;16.32;56.62
50250;BME280;36133;42.522;27.456;2023-04-22T05:19:37;101202.22;;;17.62;54.48
50250;BME280;36133;42.522;27.456;2023-04-22T05:22:02;101209.53;;;18.36;51.99
50250;BME280;36133;42.522;27.456;2023-04-22T05:24:28;101184.94;;;18.55;51.06
50250;BME280;36133;42.522;27.456;2023-04-22T05:26:53;101128.00;;;18.33;49.76
50250;BME280;36133;42.522;27.456;2023-04-22T05:32:24;101124.44;;;16.83;52.59
50250;BME280;36133;42.522;27.456;2023-04-22T05:34:49;100859.41;;;14.44;54.59
50250;BME280;36133;42.522;27.456;2023-04-22T05:37:15;101133.38;;;15.94;56.30
50250;BME280;36133;42.522;27.456;2023-04-22T05:39:40;100740.56;;;14.98;53.10
50250;BME280;36133;42.522;27.456;2023-04-22T05:42:06;101209.69;;;18.23;52.23
50250;BME280;36133;42.522;27.456;2023-04-22T05:44:36;100988.31;;;17.68;49.79
50250;BME280;36133;42.522;27.456;2023-04-22T05:47:01;101212.72;;;19.78;48.13
50250;BME280;36133;42.522;27.456;2023-04-22T05:49:27;101187.75;;;19.15;49.17
50250;BME280;36133;42.522;27.456;2023-04-22T05:51:53;100953.16;;;17.60;49.42
50250;BME280;36133;42.522;27.456;2023-04-22T05:54:18;100965.31;;;18.31;47.94
50250;BME280;36133;42.522;27.456;2023-04-22T05:56:44;101189.75;;;19.08;49.02
50250;BME280;36133;42.522;27.456;2023-04-22T05:59:09;101179.34;;;19.28;47.50
50250;BME280;36133;42.522;27.456;2023-04-22T06:01:35;100709.44;;;16.38;46.81
50250;BME280;36133;42.522;27.456;2023-04-22T06:04:03;100788.06;;;17.63;45.71
50250;BME280;36133;42.522;27.456;2023-04-22T06:06:30;100900.03;;;18.99;43.86
50250;BME280;36133;42.522;27.456;2023-04-22T06:08:56;101052.66;;;19.63;44.04
50250;BME280;36133;42.522;27.456;2023-04-22T06:11:22;100799.97;;;19.55;40.98
50250;BME280;36133;42.522;27.456;2023-04-22T06:13:47;100751.38;;;18.24;42.41
50250;BME280;36133;42.522;27.456;2023-04-22T06:16:13;101212.53;;;21.47;42.72
50250;BME280;36133;42.522;27.456;2023-04-22T06:18:38;101018.78;;;19.80;43.38
50250;BME280;36133;42.522;27.456;2023-04-22T06:21:04;101223.38;;;22.21;41.47
50250;BME280;36133;42.522;27.456;2023-04-22T06:23:43;101067.13;;;18.86;44.96
50250;BME280;36133;42.522;27.456;2023-04-22T06:26:16;100806.06;;;18.94;40.81
50250;BME280;36133;42.522;27.456;2023-04-22T06:28:44;100683.88;;;18.99;39.76
50250;BME280;36133;42.522;27.456;2023-04-22T06:31:12;100905.91;;;21.24;38.58
50250;BME280;36133;42.522;27.456;2023-04-22T06:33:38;101057.84;;;22.73;38.54
50250;BME280;36133;42.522;27.456;2023-04-22T06:36:04;100764.53;;;20.61;38.52
50250;BME280;36133;42.522;27.456;2023-04-22T06:38:30;100988.22;;;20.86;40.79
50250;BME280;36133;42.522;27.456;2023-04-22T06:41:05;100728.16;;;19.25;40.32
50250;BME280;36133;42.522;27.456;2023-04-22T06:43:31;101230.59;;;22.44;40.81
50250;BME280;36133;42.522;27.456;2023-04-22T06:45:57;100777.16;;;20.12;40.30
50250;BME280;36133;42.522;27.456;2023-04-22T06:48:46;101033.44;;;22.81;38.08
50250;BME280;36133;42.522;27.456;2023-04-22T06:51:11;100931.13;;;21.21;39.37
50250;BME280;36133;42.522;27.456;2023-04-22T06:53:59;101089.28;;;24.15;36.91
50250;BME280;36133;42.522;27.456;2023-04-22T06:56:34;101080.56;;;26.27;31.83
50250;BME280;36133;42.522;27.456;2023-04-22T06:59:00;101083.88;;;28.76;27.87
50250;BME280;36133;42.522;27.456;2023-04-22T07:01:25;101095.22;;;27.65;29.38
50250;BME280;36133;42.522;27.456;2023-04-22T07:03:56;100825.56;;;24.86;29.19
50250;BME280;36133;42.522;27.456;2023-04-22T07:06:22;100765.41;;;24.77;28.86
50250;BME280;36133;42.522;27.456;2023-04-22T07:08:52;100860.59;;;25.16;29.64
50250;BME280;36133;42.522;27.456;2023-04-22T07:11:18;101080.31;;;23.51;36.26
50250;BME280;36133;42.522;27.456;2023-04-22T07:14:04;101261.94;;;24.48;36.82
50250;BME280;36133;42.522;27.456;2023-04-22T07:16:35;101163.00;;;22.97;37.52
50250;BME280;36133;42.522;27.456;2023-04-22T07:19:05;101250.75;;;24.28;36.46
50250;BME280;36133;42.522;27.456;2023-04-22T07:21:32;100804.91;;;24.02;32.77
50250;BME280;36133;42.522;27.456;2023-04-22T07:24:01;101243.03;;;27.17;31.60
50250;BME280;36133;42.522;27.456;2023-04-22T07:26:33;100997.84;;;24.69;33.05
50250;BME280;36133;42.522;27.456;2023-04-22T07:28:58;101067.25;;;23.73;34.76
50250;BME280;36133;42.522;27.456;2023-04-22T07:31:24;100815.00;;;23.60;32.66
50250;BME280;36133;42.522;27.456;2023-04-22T07:33:59;100979.66;;;25.24;31.49
50250;BME280;36133;42.522;27.456;2023-04-22T07:36:24;101039.44;;;26.05;30.73
50250;BME280;36133;42.522;27.456;2023-04-22T07:39:06;100982.75;;;27.97;28.19
50250;BME280;36133;42.522;27.456;2023-04-22T07:41:35;100860.59;;;30.54;23.55
50250;BME280;36133;42.522;27.456;2023-04-22T07:44:01;101127.94;;;28.64;26.08
50250;BME280;36133;42.522;27.456;2023-04-22T07:46:37;100853.31;;;30.22;22.97
50250;BME280;36133;42.522;27.456;2023-04-22T07:49:10;101114.88;;;33.26;20.43
50250;BME280;36133;42.522;27.456;2023-04-22T07:51:39;101094.69;;;27.58;26.43
50250;BME280;36133;42.522;27.456;2023-04-22T07:54:04;101123.88;;;28.99;24.62
50250;BME280;36133;42.522;27.456;2023-04-22T07:56:30;101266.53;;;30.08;24.46
50250;BME280;36133;42.522;27.456;2023-04-22T07:58:59;100926.75;;;26.21;26.16
50250;BME280;36133;42.522;27.456;2023-04-22T08:01:45;100923.63;;;27.01;25.55
50250;BME280;36133;42.522;27.456;2023-04-22T08:04:30;100902.16;;;27.88;24.78
50250;BME280;36133;42.522;27.456;2023-04-22T08:06:56;101103.66;;;29.77;23.71
50250;BME280;36133;42.522;27.456;2023-04-22T08:09:27;101243.66;;;30.24;23.99
50250;BME280;36133;42.522;27.456;2023-04-22T08:11:53;101174.59;;;30.68;23.56
50250;BME280;36133;42.522;27.456;2023-04-22T08:14:22;101265.41;;;30.22;24.27
50250;BME280;36133;42.522;27.456;2023-04-22T08:16:58;100821.09;;;31.14;20.43
50250;BME280;36133;42.522;27.456;2023-04-22T08:19:24;101106.09;;;33.62;19.45
50250;BME280;36133;42.522;27.456;2023-04-22T08:21:50;101263.09;;;34.38;19.85
50250;BME280;36133;42.522;27.456;2023-04-22T08:24:16;100862.88;;;30.08;21.46
50250;BME280;36133;42.522;27.456;2023-04-22T08:27:07;100900.88;;;26.41;24.86
50250;BME280;36133;42.522;27.456;2023-04-22T08:29:33;101095.56;;;28.97;23.54
50250;BME280;36133;42.522;27.456;2023-04-22T08:31:58;100792.59;;;27.24;22.95
50250;BME280;36133;42.522;27.456;2023-04-22T08:34:36;101259.50;;;33.25;20.81
50250;BME280;36133;42.522;27.456;2023-04-22T08:37:12;101199.28;;;32.53;20.19
50250;BME280;36133;42.522;27.456;2023-04-22T08:40:14;100791.66;;;28.09;21.88
50250;BME280;36133;42.522;27.456;2023-04-22T08:42:53;100964.59;;;27.09;24.38
50250;BME280;36133;42.522;27.456;2023-04-22T08:45:20;100733.88;;;27.22;23.04
50250;BME280;36133;42.522;27.456;2023-04-22T08:47:47;100781.31;;;26.10;23.67
50250;BME280;36133;42.522;27.456;2023-04-22T08:50:14;101034.38;;;28.78;22.38
50250;BME280;36133;42.522;27.456;2023-04-22T08:52:43;101082.38;;;27.75;23.93
50250;BME280;36133;42.522;27.456;2023-04-22T08:55:20;101000.97;;;27.02;24.19
50250;BME280;36133;42.522;27.456;2023-04-22T08:58:01;100985.84;;;27.71;23.52
50250;BME280;36133;42.522;27.456;2023-04-22T09:00:44;101109.47;;;30.50;22.23
50250;BME280;36133;42.522;27.456;2023-04-22T09:03:26;100848.22;;;32.05;19.23
50250;BME280;36133;42.522;27.456;2023-04-22T09:05:53;100852.06;;;32.82;18.78
50250;BME280;36133;42.522;27.456;2023-04-22T09:08:19;100993.91;;;32.16;19.49
50250;BME280;36133;42.522;27.456;2023-04-22T09:10:53;101024.72;;;33.67;17.90
50250;BME280;36133;42.522;27.456;2023-04-22T09:13:25;100860.19;;;28.79;20.43
50250;BME280;36133;42.522;27.456;2023-04-22T09:15:56;101160.22;;;30.19;20.87
50250;BME280;36133;42.522;27.456;2023-04-22T09:18:22;101101.84;;;29.22;21.58
50250;BME280;36133;42.522;27.456;2023-04-22T09:20:56;101020.59;;;28.73;21.73
50250;BME280;36133;42.522;27.456;2023-04-22T09:23:30;101118.94;;;25.69;25.96
50250;BME280;36133;42.522;27.456;2023-04-22T09:25:56;100749.75;;;23.81;25.45
50250;BME280;36133;42.522;27.456;2023-04-22T09:28:22;101124.56;;;26.88;24.67
50250;BME280;36133;42.522;27.456;2023-04-22T09:30:50;101030.56;;;26.68;24.71
50250;BME280;36133;42.522;27.456;2023-04-22T09:33:23;101283.25;;;27.09;25.34
50250;BME280;36133;42.522;27.456;2023-04-22T09:35:52;101288.09;;;25.66;26.68
50250;BME280;36133;42.522;27.456;2023-04-22T09:38:20;101102.94;;;22.67;29.61
50250;BME280;36133;42.522;27.456;2023-04-22T09:40:46;100984.78;;;22.87;28.87
50250;BME280;36133;42.522;27.456;2023-04-22T09:43:19;101087.41;;;21.40;32.02
50250;BME280;36133;42.522;27.456;2023-04-22T09:45:48;100749.47;;;20.47;31.43
50250;BME280;36133;42.522;27.456;2023-04-22T09:48:20;100888.28;;;20.48;32.45
50250;BME280;36133;42.522;27.456;2023-04-22T09:50:58;101051.34;;;21.91;32.49
50250;BME280;36133;42.522;27.456;2023-04-22T09:53:24;101040.50;;;22.72;31.47
50250;BME280;36133;42.522;27.456;2023-04-22T09:56:05;100795.56;;;21.05;31.95
50250;BME280;36133;42.522;27.456;2023-04-22T09:58:38;100730.44;;;19.28;33.72
50250;BME280;36133;42.522;27.456;2023-04-22T10:01:08;101052.69;;;22.06;33.25
50250;BME280;36133;42.522;27.456;2023-04-22T10:03:52;100744.72;;;18.90;35.47
50250;BME280;36133;42.522;27.456;2023-04-22T10:06:42;101103.91;;;22.56;33.88
50250;BME280;36133;42.522;27.456;2023-04-22T10:09:08;101108.25;;;22.08;34.96
50250;BME280;36133;42.522;27.456;2023-04-22T10:11:36;101068.63;;;20.58;37.08
50250;BME280;36133;42.522;27.456;2023-04-22T10:14:08;100730.13;;;18.49;36.05
50250;BME280;36133;42.522;27.456;2023-04-22T10:16:42;101283.84;;;22.76;35.62
50250;BME280;36133;42.522;27.456;2023-04-22T10:19:28;100927.34;;;20.72;35.88
50250;BME280;36133;42.522;27.456;2023-04-22T10:21:59;100935.69;;;20.03;36.71
50250;BME280;36133;42.522;27.456;2023-04-22T10:24:39;100742.03;;;19.92;35.22
50250;BME280;36133;42.522;27.456;2023-04-22T10:27:05;101129.41;;;25.52;31.01
50250;BME280;36133;42.522;27.456;2023-04-22T10:29:40;100932.16;;;24.76;30.23
50250;BME280;36133;42.522;27.456;2023-04-22T10:34:43;100887.66;;;27.72;25.48
50250;BME280;36133;42.522;27.456;2023-04-22T10:37:35;101192.22;;;28.76;25.83
50250;BME280;36133;42.522;27.456;2023-04-22T10:40:23;100820.63;;;24.16;29.83
50250;BME280;36133;42.522;27.456;2023-04-22T10:42:51;101068.59;;;25.72;29.82
50250;BME280;36133;42.522;27.456;2023-04-22T10:45:18;101220.66;;;27.52;28.07
50250;BME280;36133;42.522;27.456;2023-04-22T10:47:53;100843.75;;;23.85;29.04
50250;BME280;36133;42.522;27.456;2023-04-22T10:50:23;101132.19;;;25.57;29.06
50250;BME280;36133;42.522;27.456;2023-04-22T10:52:59;100719.88;;;22.70;30.77
50250;BME280;36133;42.522;27.456;2023-04-22T10:55:48;101124.91;;;26.81;28.76
50250;BME280;36133;42.522;27.456;2023-04-22T10:58:21;100917.19;;;25.18;28.08
50250;BME280;36133;42.522;27.456;2023-04-22T11:00:51;100821.78;;;23.27;30.94
50250;BME280;36133;42.522;27.456;2023-04-22T11:03:29;100807.38;;;20.00;35.45
50250;BME280;36133;42.522;27.456;2023-04-22T11:06:19;101252.84;;;23.03;35.90
50250;BME280;36133;42.522;27.456;2023-04-22T11:09:07;101161.88;;;23.20;35.13
50250;BME280;36133;42.522;27.456;2023-04-22T11:11:44;101142.94;;;23.92;33.78
50250;BME280;36133;42.522;27.456;2023-04-22T11:14:17;100777.91;;;21.94;32.98
50250;BME280;36133;42.522;27.456;2023-04-22T11:16:46;100960.41;;;23.43;33.29
50250;BME280;36133;42.522;27.456;2023-04-22T11:19:12;101080.78;;;25.20;30.01
50250;BME280;36133;42.522;27.456;2023-04-22T11:21:37;101230.06;;;25.86;31.43
50250;BME280;36133;42.522;27.456;2023-04-22T11:24:04;101045.94;;;25.14;30.73
50250;BME280;36133;42.522;27.456;2023-04-22T11:26:34;100994.56;;;25.03;30.28
50250;BME280;36133;42.522;27.456;2023-04-22T11:29:01;101151.22;;;25.23;32.08
50250;BME280;36133;42.522;27.456;2023-04-22T11:31:35;100833.97;;;22.20;32.93
50250;BME280;36133;42.522;27.456;2023-04-22T11:34:00;101061.94;;;23.61;33.44
50250;BME280;36133;42.522;27.456;2023-04-22T11:36:26;101219.75;;;25.31;33.30
50250;BME280;36133;42.522;27.456;2023-04-22T11:38:55;101074.91;;;24.08;33.75
50250;BME280;36133;42.522;27.456;2023-04-22T11:41:21;100882.09;;;23.29;31.36
50250;BME280;36133;42.522;27.456;2023-04-22T11:43:48;100936.59;;;23.74;30.60
50250;BME280;36133;42.522;27.456;2023-04-22T11:46:14;101217.94;;;29.49;25.77
50250;BME280;36133;42.522;27.456;2023-04-22T11:48:39;100817.63;;;28.83;23.36
50250;BME280;36133;42.522;27.456;2023-04-22T11:51:09;101141.63;;;28.08;26.08
50250;BME280;36133;42.522;27.456;2023-04-22T11:53:38;101214.78;;;27.93;26.85
50250;BME280;36133;42.522;27.456;2023-04-22T11:56:05;101020.34;;;27.89;27.07
50250;BME280;36133;42.522;27.456;2023-04-22T11:58:38;101130.16;;;30.02;25.43
50250;BME280;36133;42.522;27.456;2023-04-22T12:01:05;100912.78;;;27.81;26.10
50250;BME280;36133;42.522;27.456;2023-04-22T12:03:33;100799.00;;;25.64;28.71
50250;BME280;36133;42.522;27.456;2023-04-22T12:06:00;101048.84;;;24.41;33.20
50250;BME280;36133;42.522;27.456;2023-04-22T12:08:34;100912.22;;;26.44;29.80
50250;BME280;36133;42.522;27.456;2023-04-22T12:11:04;100896.16;;;26.80;28.58
50250;BME280;36133;42.522;27.456;2023-04-22T12:16:01;101079.19;;;29.47;27.04
50250;BME280;36133;42.522;27.456;2023-04-22T12:18:37;100945.81;;;25.63;29.96
50250;BME280;36133;42.522;27.456;2023-04-22T12:21:13;101184.41;;;25.99;31.41
50250;BME280;36133;42.522;27.456;2023-04-22T12:23:46;100960.75;;;26.26;29.59
50250;BME280;36133;42.522;27.456;2023-04-22T12:26:13;101063.47;;;26.15;29.86
50250;BME280;36133;42.522;27.456;2023-04-22T12:28:40;100743.13;;;23.97;30.59
50250;BME280;36133;42.522;27.456;2023-04-22T12:31:10;101098.63;;;26.79;29.13
50250;BME280;36133;42.522;27.456;2023-04-22T12:33:37;101052.47;;;24.57;32.35
50250;BME280;36133;42.522;27.456;2023-04-22T12:36:06;101045.91;;;23.16;34.96
50250;BME280;36133;42.522;27.456;2023-04-22T12:38:35;100698.00;;;20.15;36.92
50250;BME280;36133;42.522;27.456;2023-04-22T12:41:01;101017.16;;;21.44;39.48
50250;BME280;36133;42.522;27.456;2023-04-22T12:43:31;100729.78;;;21.32;37.06
50250;BME280;36133;42.522;27.456;2023-04-22T12:46:01;100894.66;;;23.09;35.42
50250;BME280;36133;42.522;27.456;2023-04-22T12:48:26;100680.81;;;22.68;33.88
50250;BME280;36133;42.522;27.456;2023-04-22T12:50:52;100911.38;;;25.35;31.52
50250;BME280;36133;42.522;27.456;2023-04-22T12:53:20;100766.81;;;23.98;31.71
50250;BME280;36133;42.522;27.456;2023-04-22T12:55:48;100785.66;;;25.27;29.44